sensor_id;sensor_type;location;lat;lon;timestamp;P1;durP1;ratioP1;P2;durP2;ratioP2
39880;SDS011;25554;44.954;10.068;2024-03-06T00:00:03;3.20;;;1.38;;
39880;SDS011;25554;44.954;10.068;2024-03-06T00:02:30;1.33;;;0.90;;
39880;SDS011;25554;44.954;10.068;2024-03-06T00:04:57;1.20;;;1.10;;
39880;SDS011;25554;44.954;10.068;2024-03-06T00:07:24;2.00;;;1.20;;
39880;SDS011;25554;44.954;10.068;2024-03-06T00:09:52;2.15;;;1.40;;
39880;SDS011;25554;44.954;10.068;2024-03-06T00:12:18;1.98;;;1.58;;
39880;SDS011;25554;44.954;10.068;2024-03-06T00:14:45;2.65;;;1.33;;
39880;SDS011;25554;44.954;10.068;2024-03-06T00:17:12;1.95;;;1.45;;
39880;SDS011;25554;44.954;10.068;2024-03-06T00:19:38;2.20;;;1.40;;
39880;SDS011;25554;44.954;10.068;2024-03-06T00:22:05;1.98;;;1.67;;
39880;SDS011;25554;44.954;10.068;2024-03-06T00:24:31;1.75;;;1.30;;
39880;SDS011;25554;44.954;10.068;2024-03-06T00:26:58;2.47;;;1.20;;
39880;SDS011;25554;44.954;10.068;2024-03-06T00:29:25;1.95;;;1.35;;
39880;SDS011;25554;44.954;10.068;2024-03-06T00:31:51;1.65;;;1.17;;
39880;SDS011;25554;44.954;10.068;2024-03-06T00:34:18;1.92;;;1.08;;
39880;SDS011;25554;44.954;10.068;2024-03-06T00:36:45;1.63;;;1.05;;
39880;SDS011;25554;44.954;10.068;2024-03-06T00:39:12;1.48;;;1.17;;
39880;SDS011;25554;44.954;10.068;2024-03-06T00:41:41;1.70;;;1.10;;
39880;SDS011;25554;44.954;10.068;2024-03-06T00:44:08;1.50;;;1.10;;
39880;SDS011;25554;44.954;10.068;2024-03-06T00:46:35;1.42;;;0.98;;
39880;SDS011;25554;44.954;10.068;2024-03-06T00:49:01;1.27;;;0.90;;
39880;SDS011;25554;44.954;10.068;2024-03-06T00:51:28;1.30;;;0.90;;
39880;SDS011;25554;44.954;10.068;2024-03-06T00:53:55;3.10;;;1.38;;
39880;SDS011;25554;44.954;10.068;2024-03-06T00:56:22;1.63;;;1.02;;
39880;SDS011;25554;44.954;10.068;2024-03-06T00:58:49;1.70;;;0.88;;
39880;SDS011;25554;44.954;10.068;2024-03-06T01:01:16;1.85;;;1.15;;
39880;SDS011;25554;44.954;10.068;2024-03-06T01:03:42;1.17;;;0.70;;
39880;SDS011;25554;44.954;10.068;2024-03-06T01:06:09;1.70;;;1.00;;
39880;SDS011;25554;44.954;10.068;2024-03-06T01:08:36;1.45;;;1.13;;
39880;SDS011;25554;44.954;10.068;2024-03-06T01:11:02;1.17;;;0.95;;
39880;SDS011;25554;44.954;10.068;2024-03-06T01:13:30;1.20;;;0.80;;
39880;SDS011;25554;44.954;10.068;2024-03-06T01:15:57;2.67;;;1.15;;
39880;SDS011;25554;44.954;10.068;2024-03-06T01:18:23;1.50;;;0.95;;
39880;SDS011;25554;44.954;10.068;2024-03-06T01:20:50;3.70;;;1.20;;
39880;SDS011;25554;44.954;10.068;2024-03-06T01:23:16;1.85;;;1.33;;
39880;SDS011;25554;44.954;10.068;2024-03-06T01:25:43;1.35;;;1.20;;
39880;SDS011;25554;44.954;10.068;2024-03-06T01:28:09;1.25;;;1.02;;
39880;SDS011;25554;44.954;10.068;2024-03-06T01:30:36;1.33;;;0.95;;
39880;SDS011;25554;44.954;10.068;2024-03-06T01:33:11;1.17;;;1.08;;
39880;SDS011;25554;44.954;10.068;2024-03-06T01:35:38;1.27;;;1.10;;
39880;SDS011;25554;44.954;10.068;2024-03-06T01:38:04;1.42;;;0.90;;
39880;SDS011;25554;44.954;10.068;2024-03-06T01:40:31;0.98;;;0.90;;
39880;SDS011;25554;44.954;10.068;2024-03-06T01:42:58;1.38;;;1.23;;
39880;SDS011;25554;44.954;10.068;2024-03-06T01:45:26;1.17;;;1.08;;
39880;SDS011;25554;44.954;10.068;2024-03-06T01:47:53;0.90;;;0.90;;
39880;SDS011;25554;44.954;10.068;2024-03-06T01:50:20;1.02;;;0.80;;
39880;SDS011;25554;44.954;10.068;2024-03-06T01:52:46;1.13;;;0.93;;
39880;SDS011;25554;44.954;10.068;2024-03-06T01:55:16;0.93;;;0.90;;
39880;SDS011;25554;44.954;10.068;2024-03-06T01:57:43;0.70;;;0.70;;
39880;SDS011;25554;44.954;10.068;2024-03-06T02:00:10;0.88;;;0.82;;
39880;SDS011;25554;44.954;10.068;2024-03-06T02:02:40;1.10;;;0.98;;
39880;SDS011;25554;44.954;10.068;2024-03-06T02:05:10;1.55;;;1.00;;
39880;SDS011;25554;44.954;10.068;2024-03-06T02:07:38;0.75;;;0.70;;
39880;SDS011;25554;44.954;10.068;2024-03-06T02:10:07;0.95;;;0.90;;
39880;SDS011;25554;44.954;10.068;2024-03-06T02:12:38;1.15;;;0.80;;
39880;SDS011;25554;44.954;10.068;2024-03-06T02:15:17;0.98;;;0.82;;
39880;SDS011;25554;44.954;10.068;2024-03-06T02:17:44;0.95;;;0.90;;
39880;SDS011;25554;44.954;10.068;2024-03-06T02:20:11;0.77;;;0.75;;
39880;SDS011;25554;44.954;10.068;2024-03-06T02:22:40;0.70;;;0.70;;
39880;SDS011;25554;44.954;10.068;2024-03-06T02:25:06;2.25;;;0.80;;
39880;SDS011;25554;44.954;10.068;2024-03-06T02:27:33;0.80;;;0.75;;
39880;SDS011;25554;44.954;10.068;2024-03-06T02:30:00;1.50;;;1.10;;
39880;SDS011;25554;44.954;10.068;2024-03-06T02:32:27;0.65;;;0.65;;
39880;SDS011;25554;44.954;10.068;2024-03-06T02:34:53;0.95;;;0.80;;
39880;SDS011;25554;44.954;10.068;2024-03-06T02:37:20;1.65;;;1.13;;
39880;SDS011;25554;44.954;10.068;2024-03-06T02:39:47;1.13;;;0.70;;
39880;SDS011;25554;44.954;10.068;2024-03-06T02:42:14;1.38;;;0.70;;
39880;SDS011;25554;44.954;10.068;2024-03-06T02:44:42;0.77;;;0.55;;
39880;SDS011;25554;44.954;10.068;2024-03-06T02:47:09;1.10;;;0.95;;
39880;SDS011;25554;44.954;10.068;2024-03-06T02:49:35;0.93;;;0.77;;
39880;SDS011;25554;44.954;10.068;2024-03-06T02:52:02;0.75;;;0.73;;
39880;SDS011;25554;44.954;10.068;2024-03-06T02:54:29;0.75;;;0.75;;
39880;SDS011;25554;44.954;10.068;2024-03-06T02:56:55;2.70;;;0.75;;
39880;SDS011;25554;44.954;10.068;2024-03-06T02:59:22;0.57;;;0.57;;
39880;SDS011;25554;44.954;10.068;2024-03-06T03:01:49;0.60;;;0.60;;
39880;SDS011;25554;44.954;10.068;2024-03-06T03:04:16;0.60;;;0.60;;
39880;SDS011;25554;44.954;10.068;2024-03-06T03:06:43;0.45;;;0.45;;
39880;SDS011;25554;44.954;10.068;2024-03-06T03:09:09;0.40;;;0.40;;
39880;SDS011;25554;44.954;10.068;2024-03-06T03:11:37;0.85;;;0.60;;
39880;SDS011;25554;44.954;10.068;2024-03-06T03:14:04;1.15;;;0.60;;
39880;SDS011;25554;44.954;10.068;2024-03-06T03:16:31;0.55;;;0.40;;
39880;SDS011;25554;44.954;10.068;2024-03-06T03:18:58;0.60;;;0.60;;
39880;SDS011;25554;44.954;10.068;2024-03-06T03:21:24;1.20;;;0.50;;
39880;SDS011;25554;44.954;10.068;2024-03-06T03:23:51;0.60;;;0.60;;
39880;SDS011;25554;44.954;10.068;2024-03-06T03:26:18;0.75;;;0.70;;
39880;SDS011;25554;44.954;10.068;2024-03-06T03:28:44;2.83;;;0.98;;
39880;SDS011;25554;44.954;10.068;2024-03-06T03:31:11;0.70;;;0.50;;
39880;SDS011;25554;44.954;10.068;2024-03-06T03:33:41;0.85;;;0.70;;
39880;SDS011;25554;44.954;10.068;2024-03-06T03:36:08;0.95;;;0.80;;
39880;SDS011;25554;44.954;10.068;2024-03-06T03:38:35;0.75;;;0.47;;
39880;SDS011;25554;44.954;10.068;2024-03-06T03:41:07;1.10;;;0.60;;
39880;SDS011;25554;44.954;10.068;2024-03-06T03:43:34;0.63;;;0.47;;
39880;SDS011;25554;44.954;10.068;2024-03-06T03:46:01;0.90;;;0.63;;
39880;SDS011;25554;44.954;10.068;2024-03-06T03:48:32;0.50;;;0.50;;
39880;SDS011;25554;44.954;10.068;2024-03-06T03:51:02;0.88;;;0.73;;
39880;SDS011;25554;44.954;10.068;2024-03-06T03:53:35;0.68;;;0.68;;
39880;SDS011;25554;44.954;10.068;2024-03-06T03:56:02;1.98;;;0.60;;
39880;SDS011;25554;44.954;10.068;2024-03-06T03:58:29;2.30;;;0.80;;
39880;SDS011;25554;44.954;10.068;2024-03-06T04:00:58;0.85;;;0.50;;
39880;SDS011;25554;44.954;10.068;2024-03-06T04:03:25;0.68;;;0.63;;
39880;SDS011;25554;44.954;10.068;2024-03-06T04:05:52;1.33;;;0.93;;
39880;SDS011;25554;44.954;10.068;2024-03-06T04:10:44;0.60;;;0.60;;
39880;SDS011;25554;44.954;10.068;2024-03-06T04:13:11;0.75;;;0.75;;
39880;SDS011;25554;44.954;10.068;2024-03-06T04:15:39;0.47;;;0.47;;
39880;SDS011;25554;44.954;10.068;2024-03-06T04:18:05;0.68;;;0.63;;
39880;SDS011;25554;44.954;10.068;2024-03-06T04:20:32;0.60;;;0.60;;
39880;SDS011;25554;44.954;10.068;2024-03-06T04:22:59;1.38;;;0.50;;
39880;SDS011;25554;44.954;10.068;2024-03-06T04:25:25;1.20;;;0.57;;
39880;SDS011;25554;44.954;10.068;2024-03-06T04:27:52;0.65;;;0.65;;
39880;SDS011;25554;44.954;10.068;2024-03-06T04:30:18;0.85;;;0.80;;
39880;SDS011;25554;44.954;10.068;2024-03-06T04:32:52;1.13;;;0.70;;
39880;SDS011;25554;44.954;10.068;2024-03-06T04:35:19;1.27;;;0.98;;
39880;SDS011;25554;44.954;10.068;2024-03-06T04:37:46;1.25;;;1.15;;
39880;SDS011;25554;44.954;10.068;2024-03-06T04:40:15;1.75;;;1.10;;
39880;SDS011;25554;44.954;10.068;2024-03-06T04:42:49;1.92;;;1.10;;
39880;SDS011;25554;44.954;10.068;2024-03-06T04:45:15;1.10;;;1.00;;
39880;SDS011;25554;44.954;10.068;2024-03-06T04:47:42;1.55;;;1.20;;
39880;SDS011;25554;44.954;10.068;2024-03-06T04:50:10;1.63;;;1.30;;
39880;SDS011;25554;44.954;10.068;2024-03-06T04:52:37;2.03;;;1.70;;
39880;SDS011;25554;44.954;10.068;2024-03-06T04:55:13;1.58;;;1.35;;
39880;SDS011;25554;44.954;10.068;2024-03-06T04:57:42;3.03;;;1.33;;
39880;SDS011;25554;44.954;10.068;2024-03-06T05:00:10;1.45;;;1.10;;
39880;SDS011;25554;44.954;10.068;2024-03-06T05:02:37;5.32;;;1.60;;
39880;SDS011;25554;44.954;10.068;2024-03-06T05:05:04;2.38;;;1.83;;
39880;SDS011;25554;44.954;10.068;2024-03-06T05:07:31;7.38;;;6.60;;
39880;SDS011;25554;44.954;10.068;2024-03-06T05:09:58;5.38;;;2.92;;
39880;SDS011;25554;44.954;10.068;2024-03-06T05:12:25;7.45;;;2.20;;
39880;SDS011;25554;44.954;10.068;2024-03-06T05:14:52;7.38;;;3.33;;
39880;SDS011;25554;44.954;10.068;2024-03-06T05:17:19;5.32;;;3.47;;
39880;SDS011;25554;44.954;10.068;2024-03-06T05:19:46;3.28;;;2.35;;
39880;SDS011;25554;44.954;10.068;2024-03-06T05:22:14;4.03;;;2.55;;
39880;SDS011;25554;44.954;10.068;2024-03-06T05:24:42;2.20;;;1.85;;
39880;SDS011;25554;44.954;10.068;2024-03-06T05:27:09;2.60;;;2.40;;
39880;SDS011;25554;44.954;10.068;2024-03-06T05:29:41;2.35;;;2.10;;
39880;SDS011;25554;44.954;10.068;2024-03-06T05:32:08;1.70;;;1.60;;
39880;SDS011;25554;44.954;10.068;2024-03-06T05:34:35;1.98;;;1.85;;
39880;SDS011;25554;44.954;10.068;2024-03-06T05:37:02;3.70;;;1.98;;
39880;SDS011;25554;44.954;10.068;2024-03-06T05:39:33;2.30;;;2.10;;
39880;SDS011;25554;44.954;10.068;2024-03-06T05:42:00;2.47;;;1.63;;
39880;SDS011;25554;44.954;10.068;2024-03-06T05:44:31;1.52;;;1.42;;
39880;SDS011;25554;44.954;10.068;2024-03-06T05:46:58;1.38;;;1.25;;
39880;SDS011;25554;44.954;10.068;2024-03-06T05:49:25;1.48;;;1.20;;
39880;SDS011;25554;44.954;10.068;2024-03-06T05:51:52;4.50;;;1.25;;
39880;SDS011;25554;44.954;10.068;2024-03-06T05:54:21;4.07;;;1.60;;
39880;SDS011;25554;44.954;10.068;2024-03-06T05:56:49;1.50;;;1.40;;
39880;SDS011;25554;44.954;10.068;2024-03-06T05:59:17;1.33;;;1.20;;
39880;SDS011;25554;44.954;10.068;2024-03-06T06:01:44;3.13;;;1.73;;
39880;SDS011;25554;44.954;10.068;2024-03-06T06:04:11;2.53;;;1.67;;
39880;SDS011;25554;44.954;10.068;2024-03-06T06:06:39;4.18;;;2.35;;
39880;SDS011;25554;44.954;10.068;2024-03-06T06:09:06;5.30;;;1.73;;
39880;SDS011;25554;44.954;10.068;2024-03-06T06:11:32;1.88;;;1.52;;
39880;SDS011;25554;44.954;10.068;2024-03-06T06:13:59;2.70;;;1.65;;
39880;SDS011;25554;44.954;10.068;2024-03-06T06:16:26;2.30;;;1.58;;
39880;SDS011;25554;44.954;10.068;2024-03-06T06:18:53;2.25;;;1.52;;
39880;SDS011;25554;44.954;10.068;2024-03-06T06:21:19;1.83;;;1.40;;
39880;SDS011;25554;44.954;10.068;2024-03-06T06:23:46;5.63;;;1.52;;
39880;SDS011;25554;44.954;10.068;2024-03-06T06:26:13;1.42;;;1.23;;
39880;SDS011;25554;44.954;10.068;2024-03-06T06:28:43;2.17;;;1.30;;
39880;SDS011;25554;44.954;10.068;2024-03-06T06:31:09;0.93;;;0.93;;
39880;SDS011;25554;44.954;10.068;2024-03-06T06:33:36;1.25;;;0.73;;
39880;SDS011;25554;44.954;10.068;2024-03-06T06:36:02;0.73;;;0.68;;
39880;SDS011;25554;44.954;10.068;2024-03-06T06:38:29;1.13;;;0.82;;
39880;SDS011;25554;44.954;10.068;2024-03-06T06:40:56;0.80;;;0.80;;
39880;SDS011;25554;44.954;10.068;2024-03-06T06:43:23;0.68;;;0.68;;
39880;SDS011;25554;44.954;10.068;2024-03-06T06:45:49;0.65;;;0.50;;
39880;SDS011;25554;44.954;10.068;2024-03-06T06:48:16;0.98;;;0.82;;
39880;SDS011;25554;44.954;10.068;2024-03-06T06:50:44;0.40;;;0.40;;
39880;SDS011;25554;44.954;10.068;2024-03-06T06:53:13;0.52;;;0.40;;
39880;SDS011;25554;44.954;10.068;2024-03-06T06:55:40;0.52;;;0.52;;
39880;SDS011;25554;44.954;10.068;2024-03-06T06:58:06;0.95;;;0.60;;
39880;SDS011;25554;44.954;10.068;2024-03-06T07:02:59;0.40;;;0.40;;
39880;SDS011;25554;44.954;10.068;2024-03-06T07:07:52;1.08;;;0.57;;
39880;SDS011;25554;44.954;10.068;2024-03-06T07:10:19;0.65;;;0.65;;
39880;SDS011;25554;44.954;10.068;2024-03-06T07:12:46;0.60;;;0.50;;
39880;SDS011;25554;44.954;10.068;2024-03-06T07:15:12;0.40;;;0.40;;
39880;SDS011;25554;44.954;10.068;2024-03-06T07:17:42;0.50;;;0.47;;
39880;SDS011;25554;44.954;10.068;2024-03-06T07:20:09;0.40;;;0.30;;
39880;SDS011;25554;44.954;10.068;2024-03-06T07:22:36;3.13;;;0.65;;
39880;SDS011;25554;44.954;10.068;2024-03-06T07:25:02;0.73;;;0.35;;
39880;SDS011;25554;44.954;10.068;2024-03-06T07:27:31;0.50;;;0.40;;
39880;SDS011;25554;44.954;10.068;2024-03-06T07:29:58;0.22;;;0.10;;
39880;SDS011;25554;44.954;10.068;2024-03-06T07:34:51;0.22;;;0.20;;
39880;SDS011;25554;44.954;10.068;2024-03-06T07:37:17;0.75;;;0.75;;
39880;SDS011;25554;44.954;10.068;2024-03-06T07:39:44;0.20;;;0.05;;
39880;SDS011;25554;44.954;10.068;2024-03-06T07:42:11;0.52;;;0.15;;
39880;SDS011;25554;44.954;10.068;2024-03-06T07:44:38;0.30;;;0.30;;
39880;SDS011;25554;44.954;10.068;2024-03-06T07:47:05;0.57;;;0.20;;
39880;SDS011;25554;44.954;10.068;2024-03-06T07:49:32;0.20;;;0.20;;
39880;SDS011;25554;44.954;10.068;2024-03-06T07:51:58;0.50;;;0.20;;
39880;SDS011;25554;44.954;10.068;2024-03-06T07:54:25;0.88;;;0.20;;
39880;SDS011;25554;44.954;10.068;2024-03-06T07:56:52;1.55;;;1.27;;
39880;SDS011;25554;44.954;10.068;2024-03-06T07:59:19;0.25;;;0.20;;
39880;SDS011;25554;44.954;10.068;2024-03-06T08:01:46;0.65;;;0.30;;
39880;SDS011;25554;44.954;10.068;2024-03-06T08:04:13;0.52;;;0.35;;
39880;SDS011;25554;44.954;10.068;2024-03-06T08:06:40;0.10;;;0.10;;
39880;SDS011;25554;44.954;10.068;2024-03-06T08:09:07;0.52;;;0.20;;
39880;SDS011;25554;44.954;10.068;2024-03-06T08:11:33;0.15;;;0.15;;
39880;SDS011;25554;44.954;10.068;2024-03-06T08:14:00;0.20;;;0.20;;
39880;SDS011;25554;44.954;10.068;2024-03-06T08:16:30;1.60;;;0.28;;
39880;SDS011;25554;44.954;10.068;2024-03-06T08:18:57;0.20;;;0.20;;
39880;SDS011;25554;44.954;10.068;2024-03-06T08:21:25;0.32;;;0.10;;
39880;SDS011;25554;44.954;10.068;2024-03-06T08:23:52;0.20;;;0.20;;
39880;SDS011;25554;44.954;10.068;2024-03-06T08:26:19;0.10;;;0.10;;
39880;SDS011;25554;44.954;10.068;2024-03-06T08:28:45;0.10;;;0.10;;
39880;SDS011;25554;44.954;10.068;2024-03-06T08:31:12;0.35;;;0.30;;
39880;SDS011;25554;44.954;10.068;2024-03-06T08:33:39;0.32;;;0.10;;
39880;SDS011;25554;44.954;10.068;2024-03-06T08:38:32;0.20;;;0.20;;
39880;SDS011;25554;44.954;10.068;2024-03-06T08:40:58;1.15;;;0.40;;
39880;SDS011;25554;44.954;10.068;2024-03-06T08:45:52;0.20;;;0.10;;
39880;SDS011;25554;44.954;10.068;2024-03-06T08:48:18;0.22;;;0.20;;
39880;SDS011;25554;44.954;10.068;2024-03-06T08:50:45;0.22;;;0.20;;
39880;SDS011;25554;44.954;10.068;2024-03-06T08:53:12;0.10;;;0.10;;
39880;SDS011;25554;44.954;10.068;2024-03-06T08:55:39;1.08;;;0.10;;
39880;SDS011;25554;44.954;10.068;2024-03-06T08:58:06;0.80;;;0.10;;
39880;SDS011;25554;44.954;10.068;2024-03-06T09:00:34;0.05;;;0.05;;
39880;SDS011;25554;44.954;10.068;2024-03-06T09:03:01;0.25;;;0.10;;
39880;SDS011;25554;44.954;10.068;2024-03-06T09:05:28;0.00;;;0.00;;
39880;SDS011;25554;44.954;10.068;2024-03-06T09:07:54;0.10;;;0.10;;
39880;SDS011;25554;44.954;10.068;2024-03-06T09:10:23;0.80;;;0.00;;
39880;SDS011;25554;44.954;10.068;2024-03-06T09:12:49;0.25;;;0.10;;
39880;SDS011;25554;44.954;10.068;2024-03-06T09:15:16;0.10;;;0.10;;
39880;SDS011;25554;44.954;10.068;2024-03-06T09:17:43;0.10;;;0.10;;
39880;SDS011;25554;44.954;10.068;2024-03-06T09:31:14;0.50;;;0.50;;
39880;SDS011;25554;44.954;10.068;2024-03-06T09:33:41;1.58;;;0.55;;
39880;SDS011;25554;44.954;10.068;2024-03-06T09:38:36;1.35;;;0.30;;
39880;SDS011;25554;44.954;10.068;2024-03-06T09:41:05;1.95;;;0.63;;
39880;SDS011;25554;44.954;10.068;2024-03-06T09:43:32;1.00;;;0.90;;
39880;SDS011;25554;44.954;10.068;2024-03-06T09:45:59;0.40;;;0.40;;
39880;SDS011;25554;44.954;10.068;2024-03-06T10:00:26;2.60;;;2.00;;
39880;SDS011;25554;44.954;10.068;2024-03-06T10:02:57;2.78;;;1.80;;
39880;SDS011;25554;44.954;10.068;2024-03-06T10:05:27;12.20;;;5.85;;
39880;SDS011;25554;44.954;10.068;2024-03-06T10:07:55;6.68;;;3.58;;
39880;SDS011;25554;44.954;10.068;2024-03-06T10:10:23;3.13;;;1.83;;
39880;SDS011;25554;44.954;10.068;2024-03-06T10:12:50;2.67;;;2.08;;
39880;SDS011;25554;44.954;10.068;2024-03-06T10:15:17;2.92;;;1.90;;
39880;SDS011;25554;44.954;10.068;2024-03-06T10:17:43;2.53;;;1.85;;
39880;SDS011;25554;44.954;10.068;2024-03-06T10:20:18;3.38;;;1.52;;
39880;SDS011;25554;44.954;10.068;2024-03-06T10:22:47;5.57;;;2.08;;
39880;SDS011;25554;44.954;10.068;2024-03-06T10:25:14;2.47;;;1.30;;
39880;SDS011;25554;44.954;10.068;2024-03-06T10:27:44;1.70;;;1.48;;
39880;SDS011;25554;44.954;10.068;2024-03-06T10:32:41;6.03;;;1.65;;
39880;SDS011;25554;44.954;10.068;2024-03-06T10:35:17;1.90;;;1.10;;
39880;SDS011;25554;44.954;10.068;2024-03-06T10:37:45;1.85;;;1.70;;
39880;SDS011;25554;44.954;10.068;2024-03-06T10:40:13;1.42;;;1.27;;
39880;SDS011;25554;44.954;10.068;2024-03-06T10:42:41;1.88;;;1.50;;
39880;SDS011;25554;44.954;10.068;2024-03-06T10:45:08;1.30;;;1.10;;
39880;SDS011;25554;44.954;10.068;2024-03-06T10:47:39;2.45;;;1.42;;
39880;SDS011;25554;44.954;10.068;2024-03-06T10:50:06;1.13;;;1.02;;
39880;SDS011;25554;44.954;10.068;2024-03-06T10:52:36;0.88;;;0.80;;
39880;SDS011;25554;44.954;10.068;2024-03-06T10:55:04;1.23;;;0.75;;
39880;SDS011;25554;44.954;10.068;2024-03-06T10:57:31;2.70;;;1.08;;
39880;SDS011;25554;44.954;10.068;2024-03-06T10:59:59;1.00;;;0.88;;
39880;SDS011;25554;44.954;10.068;2024-03-06T11:02:25;1.80;;;1.00;;
39880;SDS011;25554;44.954;10.068;2024-03-06T11:04:53;3.95;;;1.13;;
39880;SDS011;25554;44.954;10.068;2024-03-06T11:07:20;0.90;;;0.63;;
39880;SDS011;25554;44.954;10.068;2024-03-06T11:09:47;1.25;;;0.98;;
39880;SDS011;25554;44.954;10.068;2024-03-06T11:12:32;1.15;;;0.50;;
39880;SDS011;25554;44.954;10.068;2024-03-06T11:15:10;0.77;;;0.70;;
39880;SDS011;25554;44.954;10.068;2024-03-06T11:17:40;0.68;;;0.52;;
39880;SDS011;25554;44.954;10.068;2024-03-06T11:28:11;0.45;;;0.45;;
39880;SDS011;25554;44.954;10.068;2024-03-06T11:30:55;0.50;;;0.50;;
39880;SDS011;25554;44.954;10.068;2024-03-06T11:33:38;1.75;;;1.02;;
39880;SDS011;25554;44.954;10.068;2024-03-06T11:36:16;0.60;;;0.60;;
39880;SDS011;25554;44.954;10.068;2024-03-06T11:41:29;2.72;;;0.68;;
39880;SDS011;25554;44.954;10.068;2024-03-06T11:43:59;1.00;;;0.75;;
39880;SDS011;25554;44.954;10.068;2024-03-06T11:46:41;0.60;;;0.60;;
39880;SDS011;25554;44.954;10.068;2024-03-06T11:51:50;0.60;;;0.60;;
39880;SDS011;25554;44.954;10.068;2024-03-06T11:54:17;1.70;;;0.70;;
39880;SDS011;25554;44.954;10.068;2024-03-06T11:56:51;0.77;;;0.77;;
39880;SDS011;25554;44.954;10.068;2024-03-06T12:01:55;1.42;;;1.02;;
39880;SDS011;25554;44.954;10.068;2024-03-06T12:04:29;1.77;;;1.15;;
39880;SDS011;25554;44.954;10.068;2024-03-06T12:06:57;1.15;;;0.93;;
39880;SDS011;25554;44.954;10.068;2024-03-06T12:09:32;4.90;;;1.55;;
39880;SDS011;25554;44.954;10.068;2024-03-06T12:11:59;0.80;;;0.80;;
39880;SDS011;25554;44.954;10.068;2024-03-06T12:14:26;2.35;;;1.20;;
39880;SDS011;25554;44.954;10.068;2024-03-06T12:19:26;2.10;;;1.33;;
39880;SDS011;25554;44.954;10.068;2024-03-06T12:22:00;0.82;;;0.82;;
39880;SDS011;25554;44.954;10.068;2024-03-06T12:24:29;2.10;;;1.10;;
39880;SDS011;25554;44.954;10.068;2024-03-06T12:29:27;0.70;;;0.70;;
39880;SDS011;25554;44.954;10.068;2024-03-06T12:31:58;0.85;;;0.80;;
39880;SDS011;25554;44.954;10.068;2024-03-06T12:34:25;0.90;;;0.90;;
39880;SDS011;25554;44.954;10.068;2024-03-06T12:36:51;2.35;;;0.82;;
39880;SDS011;25554;44.954;10.068;2024-03-06T12:41:49;1.30;;;1.10;;
39880;SDS011;25554;44.954;10.068;2024-03-06T12:44:16;2.08;;;1.00;;
39880;SDS011;25554;44.954;10.068;2024-03-06T12:46:42;0.70;;;0.70;;
39880;SDS011;25554;44.954;10.068;2024-03-06T12:49:09;1.00;;;0.90;;
39880;SDS011;25554;44.954;10.068;2024-03-06T12:51:36;2.28;;;0.90;;
39880;SDS011;25554;44.954;10.068;2024-03-06T12:56:29;3.00;;;0.70;;
39880;SDS011;25554;44.954;10.068;2024-03-06T12:58:56;3.15;;;1.10;;
39880;SDS011;25554;44.954;10.068;2024-03-06T13:03:48;1.65;;;0.50;;
39880;SDS011;25554;44.954;10.068;2024-03-06T13:08:41;0.63;;;0.40;;
39880;SDS011;25554;44.954;10.068;2024-03-06T13:11:07;0.95;;;0.50;;
39880;SDS011;25554;44.954;10.068;2024-03-06T13:13:35;0.30;;;0.25;;
39880;SDS011;25554;44.954;10.068;2024-03-06T13:16:01;0.70;;;0.60;;
39880;SDS011;25554;44.954;10.068;2024-03-06T13:18:28;0.40;;;0.40;;
39880;SDS011;25554;44.954;10.068;2024-03-06T13:23:23;1.70;;;0.77;;
39880;SDS011;25554;44.954;10.068;2024-03-06T13:28:16;0.40;;;0.40;;
39880;SDS011;25554;44.954;10.068;2024-03-06T13:30:43;1.77;;;0.65;;
39880;SDS011;25554;44.954;10.068;2024-03-06T13:35:36;1.65;;;1.23;;
39880;SDS011;25554;44.954;10.068;2024-03-06T13:38:03;1.42;;;0.80;;
39880;SDS011;25554;44.954;10.068;2024-03-06T13:42:56;2.17;;;1.65;;
39880;SDS011;25554;44.954;10.068;2024-03-06T13:45:23;2.45;;;1.23;;
39880;SDS011;25554;44.954;10.068;2024-03-06T13:50:15;2.08;;;1.63;;
39880;SDS011;25554;44.954;10.068;2024-03-06T13:52:43;3.28;;;1.70;;
39880;SDS011;25554;44.954;10.068;2024-03-06T13:55:09;1.63;;;1.27;;
39880;SDS011;25554;44.954;10.068;2024-03-06T13:57:36;4.07;;;1.60;;
39880;SDS011;25554;44.954;10.068;2024-03-06T14:00:05;3.63;;;2.10;;
39880;SDS011;25554;44.954;10.068;2024-03-06T14:02:45;2.67;;;2.45;;
39880;SDS011;25554;44.954;10.068;2024-03-06T14:05:13;5.35;;;2.70;;
39880;SDS011;25554;44.954;10.068;2024-03-06T14:07:43;3.65;;;3.08;;
39880;SDS011;25554;44.954;10.068;2024-03-06T14:10:10;3.75;;;3.00;;
39880;SDS011;25554;44.954;10.068;2024-03-06T14:12:38;5.32;;;3.05;;
39880;SDS011;25554;44.954;10.068;2024-03-06T14:15:05;4.55;;;3.10;;
39880;SDS011;25554;44.954;10.068;2024-03-06T14:17:34;5.85;;;3.50;;
39880;SDS011;25554;44.954;10.068;2024-03-06T14:22:27;5.07;;;3.40;;
39880;SDS011;25554;44.954;10.068;2024-03-06T14:24:54;4.78;;;3.67;;
39880;SDS011;25554;44.954;10.068;2024-03-06T14:27:21;6.28;;;3.80;;
39880;SDS011;25554;44.954;10.068;2024-03-06T14:32:14;7.95;;;3.70;;
39880;SDS011;25554;44.954;10.068;2024-03-06T14:34:41;7.63;;;3.78;;
39880;SDS011;25554;44.954;10.068;2024-03-06T14:37:09;6.70;;;4.00;;
39880;SDS011;25554;44.954;10.068;2024-03-06T14:39:36;7.57;;;4.07;;
39880;SDS011;25554;44.954;10.068;2024-03-06T14:42:02;9.30;;;4.10;;
39880;SDS011;25554;44.954;10.068;2024-03-06T14:44:29;6.22;;;4.45;;
39880;SDS011;25554;44.954;10.068;2024-03-06T14:46:56;6.95;;;4.57;;
39880;SDS011;25554;44.954;10.068;2024-03-06T14:49:23;5.78;;;4.38;;
39880;SDS011;25554;44.954;10.068;2024-03-06T14:51:50;8.52;;;3.88;;
39880;SDS011;25554;44.954;10.068;2024-03-06T14:54:17;4.97;;;3.97;;
39880;SDS011;25554;44.954;10.068;2024-03-06T14:59:09;7.13;;;3.75;;
39880;SDS011;25554;44.954;10.068;2024-03-06T15:01:36;5.25;;;3.65;;
39880;SDS011;25554;44.954;10.068;2024-03-06T15:04:03;6.13;;;3.42;;
39880;SDS011;25554;44.954;10.068;2024-03-06T15:06:30;5.20;;;3.92;;
39880;SDS011;25554;44.954;10.068;2024-03-06T15:08:56;4.78;;;3.28;;
39880;SDS011;25554;44.954;10.068;2024-03-06T15:13:49;6.78;;;4.10;;
39880;SDS011;25554;44.954;10.068;2024-03-06T15:16:16;5.85;;;3.40;;
39880;SDS011;25554;44.954;10.068;2024-03-06T15:18:44;9.02;;;3.80;;
39880;SDS011;25554;44.954;10.068;2024-03-06T15:21:10;4.88;;;3.40;;
39880;SDS011;25554;44.954;10.068;2024-03-06T15:23:37;6.88;;;3.70;;
39880;SDS011;25554;44.954;10.068;2024-03-06T15:26:04;7.47;;;4.97;;
39880;SDS011;25554;44.954;10.068;2024-03-06T15:30:57;6.25;;;4.28;;
39880;SDS011;25554;44.954;10.068;2024-03-06T15:35:51;8.57;;;3.63;;
39880;SDS011;25554;44.954;10.068;2024-03-06T15:40:43;8.38;;;3.40;;
39880;SDS011;25554;44.954;10.068;2024-03-06T15:45:36;6.35;;;3.42;;
39880;SDS011;25554;44.954;10.068;2024-03-06T15:48:02;7.20;;;4.03;;
39880;SDS011;25554;44.954;10.068;2024-03-06T15:50:29;5.40;;;3.88;;
39880;SDS011;25554;44.954;10.068;2024-03-06T15:55:22;4.93;;;3.45;;
39880;SDS011;25554;44.954;10.068;2024-03-06T16:00:14;8.40;;;3.85;;
39880;SDS011;25554;44.954;10.068;2024-03-06T16:02:42;9.25;;;4.65;;
39880;SDS011;25554;44.954;10.068;2024-03-06T16:05:09;8.65;;;4.05;;
39880;SDS011;25554;44.954;10.068;2024-03-06T16:10:02;4.40;;;2.60;;
39880;SDS011;25554;44.954;10.068;2024-03-06T16:12:28;7.40;;;2.88;;
39880;SDS011;25554;44.954;10.068;2024-03-06T16:17:21;8.52;;;2.60;;
39880;SDS011;25554;44.954;10.068;2024-03-06T16:22:13;8.45;;;2.42;;
39880;SDS011;25554;44.954;10.068;2024-03-06T16:27:06;7.30;;;2.10;;
39880;SDS011;25554;44.954;10.068;2024-03-06T16:29:34;2.65;;;1.23;;
39880;SDS011;25554;44.954;10.068;2024-03-06T16:32:01;6.07;;;1.02;;
39880;SDS011;25554;44.954;10.068;2024-03-06T16:34:28;1.02;;;0.70;;